createdAt,value
2023-03-02T00:02:39.631Z,58.10
2023-03-02T00:07:36.030Z,64.70
2023-03-02T00:12:30.250Z,65.60
2023-03-02T00:17:27.972Z,59.20
2023-03-02T00:22:20.836Z,57.10
2023-03-02T00:27:13.479Z,60.50
2023-03-02T00:32:06.692Z,52.50
2023-03-02T00:37:00.113Z,53.40
2023-03-02T00:41:52.827Z,57.00
2023-03-02T00:46:46.617Z,57.20
2023-03-02T00:51:39.738Z,60.80
2023-03-02T00:56:32.824Z,55.40
2023-03-02T01:01:26.024Z,60.20
2023-03-02T01:06:22.408Z,59.20
2023-03-02T01:11:20.778Z,58.90
2023-03-02T01:16:13.901Z,59.90
2023-03-02T01:21:12.932Z,62.00
2023-03-02T01:26:07.573Z,54.30
2023-03-02T01:31:01.391Z,57.40
2023-03-02T01:35:54.146Z,63.10
2023-03-02T01:40:46.847Z,58.90
2023-03-02T01:45:49.015Z,57.00
2023-03-02T01:50:46.568Z,60.70
2023-03-02T01:55:40.527Z,64.40
2023-03-02T02:00:38.329Z,63.90
2023-03-02T02:05:31.027Z,68.30
2023-03-02T02:10:23.734Z,82.80
2023-03-02T02:15:19.000Z,79.80
2023-03-02T02:20:29.745Z,67.80
2023-03-02T02:25:45.552Z,80.00
2023-03-02T02:30:41.947Z,71.00
2023-03-02T02:35:38.640Z,73.80
2023-03-02T02:40:55.014Z,82.10
2023-03-02T02:45:55.063Z,78.90
2023-03-02T02:50:48.615Z,48.90
2023-03-02T02:55:43.335Z,71.80
2023-03-02T03:00:37.520Z,60.30
2023-03-02T03:05:30.264Z,56.20
2023-03-02T03:10:23.003Z,57.50
2023-03-02T03:15:15.960Z,59.90
2023-03-02T03:20:10.863Z,62.70
2023-03-02T03:25:08.496Z,68.10
2023-03-02T03:30:01.970Z,65.60
2023-03-02T03:34:55.627Z,58.70
2023-03-02T03:39:52.578Z,39.10
2023-03-02T03:44:45.686Z,60.60
2023-03-02T03:49:38.478Z,61.60
2023-03-02T03:54:31.981Z,59.20
2023-03-02T03:59:27.105Z,61.90
2023-03-02T04:04:34.683Z,58.30
2023-03-02T04:09:37.870Z,62.70
2023-03-02T04:14:31.830Z,62.60
2023-03-02T04:19:25.302Z,56.80
2023-03-02T04:24:23.410Z,57.20
2023-03-02T04:29:19.050Z,61.80
2023-03-02T04:34:13.727Z,62.50
2023-03-02T04:39:09.492Z,58.10
2023-03-02T04:44:02.252Z,61.50
2023-03-02T04:48:55.721Z,64.70
2023-03-02T04:53:48.372Z,59.90
2023-03-02T04:58:41.040Z,57.50
2023-03-02T05:03:34.064Z,57.30
2023-03-02T05:08:26.729Z,49.60
2023-03-02T05:13:19.415Z,48.90
2023-03-02T05:18:13.252Z,50.20
2023-03-02T05:23:09.875Z,41.50
2023-03-02T05:28:04.514Z,61.00
2023-03-02T05:32:57.226Z,55.90
2023-03-02T05:37:50.581Z,49.70
2023-03-02T05:42:43.903Z,55.70
2023-03-02T05:47:38.942Z,58.50
2023-03-02T05:52:41.943Z,52.80
2023-03-02T05:57:35.356Z,54.90
2023-03-02T06:02:28.074Z,54.80
2023-03-02T06:07:20.800Z,56.10
2023-03-02T06:12:13.504Z,51.40
2023-03-02T06:17:06.228Z,54.90
2023-03-02T06:21:59.563Z,53.90
2023-03-02T06:26:55.257Z,61.40
2023-03-02T06:31:48.148Z,57.40
2023-03-02T06:36:40.996Z,54.80
2023-03-02T06:41:34.886Z,60.00
2023-03-02T06:46:27.719Z,65.00
2023-03-02T06:51:20.404Z,55.80
2023-03-02T06:56:13.153Z,63.70
2023-03-02T07:01:07.897Z,56.50
2023-03-02T07:06:01.096Z,57.10
2023-03-02T07:10:53.828Z,47.90
2023-03-02T07:15:46.644Z,52.80
2023-03-02T07:20:39.634Z,53.40
2023-03-02T07:25:32.682Z,55.50
2023-03-02T07:30:26.591Z,59.80
2023-03-02T07:35:19.549Z,47.40
2023-03-02T07:40:13.610Z,46.80
2023-03-02T07:45:07.715Z,47.50
2023-03-02T07:50:00.326Z,50.50
2023-03-02T07:54:53.095Z,53.50
2023-03-02T07:59:46.255Z,40.00
2023-03-02T08:04:38.927Z,46.20
2023-03-02T08:09:31.588Z,47.70
2023-03-02T08:14:24.264Z,48.20
2023-03-02T08:19:16.961Z,43.80
2023-03-02T08:24:10.732Z,42.90
2023-03-02T08:29:03.519Z,31.60
2023-03-02T08:33:56.209Z,38.60
2023-03-02T08:38:50.326Z,32.30
2023-03-02T08:43:43.422Z,36.40
2023-03-02T08:48:36.153Z,31.10
2023-03-02T08:53:31.997Z,32.60
2023-03-02T08:58:24.672Z,37.30
2023-03-02T09:03:17.872Z,35.90
2023-03-02T09:08:10.717Z,34.90
2023-03-02T09:13:03.669Z,34.00
2023-03-02T09:17:56.361Z,35.20
2023-03-02T09:22:51.116Z,24.20
2023-03-02T09:27:43.770Z,19.60
2023-03-02T09:32:36.667Z,18.90
2023-03-02T09:37:32.938Z,17.20
2023-03-02T09:43:23.016Z,22.40
2023-03-02T09:48:32.552Z,21.90
2023-03-02T09:53:25.190Z,22.60
2023-03-02T09:58:21.683Z,23.30
2023-03-02T10:03:20.074Z,16.00
2023-03-02T10:08:16.449Z,13.90
2023-03-02T10:13:29.969Z,17.20
2023-03-02T10:18:29.573Z,26.20
2023-03-02T10:23:34.664Z,20.90
2023-03-02T10:28:34.166Z,28.50
2023-03-02T10:33:28.665Z,23.90
2023-03-02T10:38:26.248Z,22.40
2023-03-02T10:48:15.412Z,11.10
2023-03-02T10:53:09.647Z,19.00
2023-03-02T10:58:21.170Z,17.10
2023-03-02T11:03:24.230Z,16.70
2023-03-02T11:08:31.754Z,18.70
2023-03-02T11:13:29.270Z,19.90
2023-03-02T11:18:26.739Z,17.20
2023-03-02T11:23:36.108Z,19.00
2023-03-02T11:29:07.345Z,18.40
2023-03-02T11:34:35.267Z,20.60
2023-03-02T11:39:46.388Z,19.80
2023-03-02T11:49:45.055Z,25.10
2023-03-02T11:54:45.979Z,23.80
2023-03-02T11:59:39.760Z,26.90
2023-03-02T12:04:35.940Z,24.90
2023-03-02T12:09:36.578Z,26.00
2023-03-02T12:14:42.585Z,26.30
2023-03-02T12:19:45.272Z,24.60
2023-03-02T12:24:43.243Z,23.30
2023-03-02T12:29:46.500Z,27.60
2023-03-02T12:34:45.532Z,23.60
2023-03-02T12:40:35.522Z,24.80
2023-03-02T12:45:43.438Z,22.30
2023-03-02T12:50:40.848Z,21.40
2023-03-02T12:55:34.438Z,21.00
2023-03-02T13:00:30.843Z,21.80
2023-03-02T13:05:35.865Z,15.50
2023-03-02T13:10:37.284Z,15.70
2023-03-02T13:15:30.479Z,13.70
2023-03-02T13:20:25.562Z,12.70
2023-03-02T13:25:28.606Z,13.60
2023-03-02T13:30:30.857Z,15.10
2023-03-02T13:35:27.196Z,14.30
2023-03-02T13:40:22.861Z,15.70
2023-03-02T13:45:30.759Z,12.20
2023-03-02T13:55:19.593Z,13.00
2023-03-02T14:00:16.739Z,11.70
2023-03-02T14:05:21.889Z,14.60
2023-03-02T14:10:17.247Z,13.00
2023-03-02T14:15:15.557Z,15.10
2023-03-02T14:20:12.093Z,14.90
2023-03-02T14:25:04.975Z,14.80
2023-03-02T14:29:58.194Z,18.30
2023-03-02T14:34:50.896Z,15.10
2023-03-02T14:39:54.212Z,19.90
2023-03-02T14:44:49.716Z,18.60
2023-03-02T14:49:42.374Z,19.50
2023-03-02T14:54:45.012Z,18.50
2023-03-02T14:59:37.689Z,16.00
2023-03-02T15:04:30.369Z,15.40
2023-03-02T15:09:23.080Z,27.50
2023-03-02T15:14:15.740Z,19.10
2023-03-02T15:19:09.653Z,16.00
2023-03-02T15:24:02.365Z,20.30
2023-03-02T15:28:55.477Z,19.50
2023-03-02T15:33:48.387Z,28.80
2023-03-02T15:38:41.198Z,36.00
2023-03-02T15:43:34.290Z,32.30
2023-03-02T15:48:27.069Z,20.50
2023-03-02T15:53:19.825Z,20.20
2023-03-02T15:58:12.511Z,20.60
2023-03-02T16:03:05.626Z,17.30
2023-03-02T16:07:58.369Z,16.40
2023-03-02T16:12:51.011Z,16.20
2023-03-02T16:17:43.866Z,17.70
2023-03-02T16:22:36.514Z,16.10
2023-03-02T16:27:30.377Z,25.30
2023-03-02T16:32:23.135Z,19.70
2023-03-02T16:37:15.846Z,17.20
2023-03-02T16:42:08.526Z,16.30
2023-03-02T16:47:01.209Z,16.60
2023-03-02T16:51:58.864Z,17.60
2023-03-02T16:56:51.859Z,18.40
2023-03-02T17:01:44.764Z,14.50
2023-03-02T17:06:38.049Z,13.40
2023-03-02T17:11:32.350Z,17.60
2023-03-02T17:16:26.501Z,16.60
2023-03-02T17:21:19.250Z,16.10
2023-03-02T17:26:12.050Z,16.10
2023-03-02T17:31:04.854Z,16.10
2023-03-02T17:35:57.547Z,16.80
2023-03-02T17:40:50.220Z,16.60
2023-03-02T17:45:42.845Z,14.10
2023-03-02T17:51:11.881Z,15.70
2023-03-02T17:56:04.596Z,15.60
2023-03-02T18:00:57.274Z,18.00
2023-03-02T18:05:50.382Z,17.40
2023-03-02T18:10:43.777Z,16.70
2023-03-02T18:15:36.537Z,22.60
2023-03-02T18:20:29.309Z,22.30
2023-03-02T18:25:22.240Z,19.40
2023-03-02T18:30:15.483Z,22.80
2023-03-02T18:35:09.298Z,22.10
2023-03-02T18:40:02.584Z,21.50
2023-03-02T18:44:55.282Z,23.90
2023-03-02T18:49:47.968Z,24.00
2023-03-02T18:54:42.248Z,23.60
2023-03-02T18:59:36.862Z,21.80
2023-03-02T19:04:30.881Z,23.60
2023-03-02T19:09:24.746Z,29.80
2023-03-02T19:14:17.661Z,25.90
2023-03-02T19:19:10.964Z,29.60
2023-03-02T19:24:03.959Z,28.40
2023-03-02T19:28:56.616Z,32.30
2023-03-02T19:33:49.247Z,42.30
2023-03-02T19:38:44.516Z,37.60
2023-03-02T19:43:38.713Z,37.00
2023-03-02T19:48:32.197Z,48.20
2023-03-02T19:53:25.273Z,51.30
2023-03-02T19:58:19.872Z,62.30
2023-03-02T20:03:13.091Z,61.90
2023-03-02T20:08:07.773Z,73.30
2023-03-02T20:13:00.977Z,61.90
2023-03-02T20:17:53.961Z,67.40
2023-03-02T20:22:46.866Z,78.00
2023-03-02T20:27:39.915Z,79.20
2023-03-02T20:32:32.705Z,91.70
2023-03-02T20:37:26.138Z,88.00
2023-03-02T20:42:18.868Z,98.60
2023-03-02T20:47:15.065Z,84.70
2023-03-02T20:52:10.283Z,87.80
2023-03-02T20:57:05.584Z,88.30
2023-03-02T21:01:59.729Z,81.80
2023-03-02T21:06:53.506Z,89.90
2023-03-02T21:11:47.580Z,88.80
2023-03-02T21:16:43.319Z,100.40
2023-03-02T21:21:42.064Z,93.90
2023-03-02T21:26:36.513Z,86.40
2023-03-02T21:31:29.290Z,93.30
2023-03-02T21:36:25.056Z,94.90
2023-03-02T21:41:18.474Z,87.40
2023-03-02T21:46:15.994Z,92.30
2023-03-02T21:51:09.096Z,96.80
2023-03-02T21:56:01.875Z,86.30
2023-03-02T22:00:54.854Z,92.40
2023-03-02T22:05:49.963Z,93.80
2023-03-02T22:11:10.957Z,114.20
2023-03-02T22:16:44.318Z,98.70
2023-03-02T22:22:00.362Z,120.00
2023-03-02T22:32:55.557Z,120.10
2023-03-02T22:38:12.903Z,119.30
2023-03-02T22:43:32.045Z,113.30
2023-03-02T22:48:33.567Z,122.10
2023-03-02T22:54:00.024Z,118.10
2023-03-02T22:58:53.576Z,117.40
2023-03-02T23:03:48.783Z,117.10
2023-03-02T23:08:41.447Z,115.30
2023-03-02T23:13:42.093Z,114.80
2023-03-02T23:18:34.731Z,121.50
2023-03-02T23:23:29.257Z,115.10
2023-03-02T23:28:22.289Z,115.80
2023-03-02T23:33:15.986Z,122.40
2023-03-02T23:38:09.756Z,111.20
2023-03-02T23:43:24.549Z,103.00
2023-03-02T23:48:34.149Z,110.70
2023-03-02T23:53:51.710Z,115.40
